Linwood, Wisconsin
Current Conditions -  °F | °C
As of 10:55 AM on Thursday 25 Dec 2014 (Local Time) from KSTE Reporting Station
Overcast Overcast  
Wind Chill: 20°   Ceiling: 1300
Heat Index: 30°   Visibility: 10mi
Dew Point: 26°   Wind: 12mph
Humidity: 85%   Direction: 220°SW
Pressure: 29.8"   Gusts: NA
Location:  44.5531°N, 89.5186°W
Report Text: KSTE 251655Z AUTO 22010KT 10SM OVC013 M01/M03 A2980 RMK AO2 T10131035
Loading
Personal Weather Stations






























Interactive Weather Map New forecast layout! Learn more

10-Day Weather Forecast

Advertisements
Track Severe Weather on mobile